createdAt,value
2023-02-19T00:00:01.848Z,7.75
2023-02-19T00:02:29.768Z,8.27
2023-02-19T00:04:57.612Z,6.95
2023-02-19T00:07:25.410Z,6.80
2023-02-19T00:09:54.758Z,6.53
2023-02-19T00:12:22.532Z,6.20
2023-02-19T00:14:50.299Z,6.57
2023-02-19T00:17:18.055Z,6.72
2023-02-19T00:19:45.844Z,6.32
2023-02-19T00:22:13.640Z,5.50
2023-02-19T00:24:41.482Z,5.40
2023-02-19T00:27:10.604Z,5.57
2023-02-19T00:29:38.439Z,5.00
2023-02-19T00:32:06.296Z,5.47
2023-02-19T00:34:34.194Z,5.75
2023-02-19T00:37:01.992Z,5.30
2023-02-19T00:39:29.812Z,5.28
2023-02-19T00:41:57.612Z,5.65
2023-02-19T00:44:27.383Z,5.45
2023-02-19T00:46:55.263Z,5.53
2023-02-19T00:49:24.439Z,5.63
2023-02-19T00:51:53.678Z,5.80
2023-02-19T00:54:22.627Z,6.32
2023-02-19T00:56:50.596Z,6.22
2023-02-19T00:59:18.707Z,6.25
2023-02-19T01:01:49.500Z,6.30
2023-02-19T01:04:18.455Z,5.93
2023-02-19T01:06:46.406Z,6.68
2023-02-19T01:09:14.171Z,6.45
2023-02-19T01:11:42.398Z,5.88
2023-02-19T01:14:10.621Z,6.60
2023-02-19T01:16:38.429Z,6.32
2023-02-19T01:19:07.703Z,6.32
2023-02-19T01:21:35.483Z,6.72
2023-02-19T01:24:04.466Z,6.15
2023-02-19T01:26:33.912Z,7.35
2023-02-19T01:29:04.638Z,6.70
2023-02-19T01:31:32.826Z,6.55
2023-02-19T01:34:04.264Z,5.88
2023-02-19T01:36:34.624Z,6.30
2023-02-19T01:39:04.922Z,6.32
2023-02-19T01:41:36.256Z,5.82
2023-02-19T01:44:07.877Z,6.18
2023-02-19T01:46:37.933Z,6.50
2023-02-19T01:49:11.148Z,5.88
2023-02-19T01:51:45.846Z,5.53
2023-02-19T01:54:17.430Z,5.60
2023-02-19T01:56:49.270Z,6.03
2023-02-19T01:59:17.681Z,6.13
2023-02-19T02:01:45.996Z,5.60
2023-02-19T02:04:15.717Z,5.82
2023-02-19T02:06:50.270Z,5.65
2023-02-19T02:09:37.046Z,5.82
2023-02-19T02:12:05.248Z,6.20
2023-02-19T02:14:36.836Z,5.70
2023-02-19T02:17:12.935Z,5.43
2023-02-19T02:20:02.568Z,5.13
2023-02-19T02:22:37.158Z,5.05
2023-02-19T02:25:34.300Z,5.63
2023-02-19T02:28:15.367Z,4.95
2023-02-19T02:30:47.280Z,4.53
2023-02-19T02:33:27.798Z,4.07
2023-02-19T02:35:59.152Z,4.47
2023-02-19T02:38:31.082Z,4.75
2023-02-19T02:40:59.506Z,4.15
2023-02-19T02:43:27.423Z,3.75
2023-02-19T02:45:56.776Z,3.92
2023-02-19T02:48:36.883Z,4.57
2023-02-19T02:51:11.461Z,3.80
2023-02-19T02:54:07.678Z,3.50
2023-02-19T02:56:36.747Z,3.10
2023-02-19T02:59:09.011Z,3.70
2023-02-19T03:02:01.605Z,3.83
2023-02-19T03:04:34.204Z,3.60
2023-02-19T03:07:09.115Z,4.07
2023-02-19T03:09:43.227Z,3.70
2023-02-19T03:12:34.148Z,4.07
2023-02-19T03:15:26.217Z,3.63
2023-02-19T03:18:19.071Z,4.35
2023-02-19T03:20:51.658Z,4.03
2023-02-19T03:23:42.482Z,4.13
2023-02-19T03:26:10.576Z,4.28
2023-02-19T03:29:03.836Z,4.57
2023-02-19T03:31:34.134Z,4.40
2023-02-19T03:34:09.535Z,4.32
2023-02-19T03:36:43.286Z,4.30
2023-02-19T03:39:14.190Z,4.38
2023-02-19T03:41:49.861Z,4.30
2023-02-19T03:44:24.827Z,4.53
2023-02-19T03:47:03.473Z,4.65
2023-02-19T03:49:43.294Z,4.40
2023-02-19T03:52:17.595Z,4.53
2023-02-19T03:54:50.675Z,4.60
2023-02-19T03:57:21.899Z,3.90
2023-02-19T03:59:54.839Z,3.90
2023-02-19T04:02:30.691Z,4.15
2023-02-19T04:05:08.392Z,4.35
2023-02-19T04:07:40.190Z,4.18
2023-02-19T04:10:10.656Z,4.03
2023-02-19T04:12:49.456Z,4.35
2023-02-19T04:15:21.853Z,4.03
2023-02-19T04:17:55.942Z,4.53
2023-02-19T04:20:28.641Z,4.45
2023-02-19T04:22:58.019Z,4.07
2023-02-19T04:25:28.045Z,4.85
2023-02-19T04:27:56.147Z,4.90
2023-02-19T04:30:23.951Z,4.50
2023-02-19T04:32:51.871Z,4.72
2023-02-19T04:35:19.631Z,4.20
2023-02-19T04:37:48.820Z,4.80
2023-02-19T04:40:16.665Z,4.03
2023-02-19T04:42:44.466Z,4.20
2023-02-19T04:45:12.247Z,4.65
2023-02-19T04:47:39.987Z,4.10
2023-02-19T04:50:08.133Z,4.05
2023-02-19T04:52:35.902Z,4.10
2023-02-19T04:55:05.319Z,3.75
2023-02-19T04:57:33.056Z,3.50
2023-02-19T05:00:00.800Z,3.97
2023-02-19T05:02:28.745Z,3.90
2023-02-19T05:04:56.465Z,3.83
2023-02-19T05:07:24.245Z,3.92
2023-02-19T05:09:52.009Z,4.18
2023-02-19T05:12:21.162Z,3.63
2023-02-19T05:14:48.906Z,3.90
2023-02-19T05:17:16.663Z,4.13
2023-02-19T05:19:44.443Z,3.90
2023-02-19T05:22:12.181Z,4.03
2023-02-19T05:24:40.038Z,4.03
2023-02-19T05:27:07.798Z,4.00
2023-02-19T05:29:36.883Z,4.18
2023-02-19T05:32:04.733Z,3.83
2023-02-19T05:34:32.632Z,4.07
2023-02-19T05:37:00.378Z,3.58
2023-02-19T05:39:28.220Z,4.13
2023-02-19T05:41:56.048Z,3.90
2023-02-19T05:44:23.900Z,3.78
2023-02-19T05:46:53.023Z,3.90
2023-02-19T05:49:20.782Z,3.80
2023-02-19T05:51:51.508Z,4.70
2023-02-19T05:54:19.317Z,4.20
2023-02-19T05:56:47.093Z,4.20
2023-02-19T05:59:17.738Z,4.70
2023-02-19T06:01:46.271Z,4.20
2023-02-19T06:04:17.235Z,3.90
2023-02-19T06:06:45.090Z,4.55
2023-02-19T06:09:13.054Z,5.43
2023-02-19T06:11:43.316Z,4.55
2023-02-19T06:14:12.999Z,4.53
2023-02-19T06:16:40.784Z,4.47
2023-02-19T06:19:08.619Z,4.22
2023-02-19T06:21:37.749Z,4.55
2023-02-19T06:24:07.149Z,4.78
2023-02-19T06:26:35.013Z,4.60
2023-02-19T06:29:02.859Z,4.55
2023-02-19T06:31:30.684Z,4.45
2023-02-19T06:33:58.536Z,4.38
2023-02-19T06:36:26.524Z,4.13
2023-02-19T06:38:55.634Z,4.43
2023-02-19T06:41:23.419Z,4.65
2023-02-19T06:43:51.176Z,4.72
2023-02-19T06:46:19.014Z,4.63
2023-02-19T06:48:47.106Z,4.60
2023-02-19T06:51:18.581Z,4.68
2023-02-19T06:53:46.835Z,4.53
2023-02-19T06:56:25.618Z,5.05
2023-02-19T06:58:53.966Z,4.57
2023-02-19T07:01:22.036Z,5.10
2023-02-19T07:03:49.904Z,5.43
2023-02-19T07:06:17.693Z,5.38
2023-02-19T07:08:45.455Z,5.38
2023-02-19T07:11:13.378Z,5.20
2023-02-19T07:13:42.665Z,5.47
2023-02-19T07:16:11.073Z,5.18
2023-02-19T07:18:40.355Z,5.50
2023-02-19T07:21:10.181Z,5.72
2023-02-19T07:23:39.065Z,5.30
2023-02-19T07:26:10.158Z,5.47
2023-02-19T07:31:07.037Z,4.97
2023-02-19T07:33:34.819Z,5.35
2023-02-19T07:36:02.776Z,5.47
2023-02-19T07:38:30.672Z,5.80
2023-02-19T07:41:00.213Z,5.70
2023-02-19T07:43:30.047Z,5.07
2023-02-19T07:45:58.007Z,5.95
2023-02-19T07:48:27.229Z,5.78
2023-02-19T07:50:55.272Z,6.10
2023-02-19T07:53:24.072Z,6.18
2023-02-19T07:55:51.870Z,7.22
2023-02-19T07:58:20.180Z,6.13
2023-02-19T08:00:48.049Z,5.68
2023-02-19T08:03:14.961Z,6.38
2023-02-19T08:05:44.999Z,6.15
2023-02-19T08:08:14.743Z,6.85
2023-02-19T08:11:00.903Z,6.70
2023-02-19T08:13:30.812Z,7.90
2023-02-19T08:16:19.924Z,7.22
2023-02-19T08:18:52.142Z,7.00
2023-02-19T08:21:21.407Z,6.65
2023-02-19T08:23:51.152Z,7.20
2023-02-19T08:26:19.243Z,7.28
2023-02-19T08:28:47.046Z,7.95
2023-02-19T08:31:15.485Z,7.53
2023-02-19T08:33:43.473Z,6.72
2023-02-19T08:36:12.248Z,7.10
2023-02-19T08:38:41.379Z,6.53
2023-02-19T08:41:12.627Z,6.80
2023-02-19T08:43:41.432Z,6.90
2023-02-19T08:46:10.943Z,7.38
2023-02-19T08:48:39.257Z,7.35
2023-02-19T08:51:09.610Z,7.72
2023-02-19T08:53:39.374Z,8.10
2023-02-19T08:56:09.825Z,7.95
2023-02-19T08:58:37.800Z,8.15
2023-02-19T09:01:09.574Z,8.13
2023-02-19T09:03:37.719Z,7.88
2023-02-19T09:06:05.778Z,8.23
2023-02-19T09:08:33.779Z,8.25
2023-02-19T09:11:03.395Z,8.38
2023-02-19T09:13:32.703Z,7.88
2023-02-19T09:16:00.539Z,8.00
2023-02-19T09:18:28.395Z,7.05
2023-02-19T09:20:57.677Z,7.63
2023-02-19T09:23:25.506Z,8.20
2023-02-19T09:25:58.553Z,8.05
2023-02-19T09:28:26.545Z,7.80
2023-02-19T09:30:56.004Z,8.18
2023-02-19T09:33:23.927Z,8.23
2023-02-19T09:35:51.862Z,7.55
2023-02-19T09:38:19.607Z,6.13
2023-02-19T09:40:47.483Z,5.93
2023-02-19T09:43:23.040Z,5.70
2023-02-19T09:45:56.034Z,4.95
2023-02-19T09:48:25.275Z,4.35
2023-02-19T09:50:53.102Z,4.70
2023-02-19T09:53:24.855Z,4.05
2023-02-19T09:55:53.742Z,4.25
2023-02-19T09:58:27.331Z,3.85
2023-02-19T10:00:56.749Z,3.78
2023-02-19T10:03:31.766Z,3.42
2023-02-19T10:06:01.787Z,4.00
2023-02-19T10:08:33.842Z,3.67
2023-02-19T10:11:04.061Z,3.50
2023-02-19T10:13:36.488Z,3.10
2023-02-19T10:16:06.984Z,3.42
2023-02-19T10:18:41.195Z,2.50
2023-02-19T10:21:12.524Z,2.60
2023-02-19T10:23:41.772Z,2.47
2023-02-19T10:26:09.558Z,2.20
2023-02-19T10:28:37.736Z,2.28
2023-02-19T10:31:12.692Z,1.80
2023-02-19T10:33:51.632Z,1.85
2023-02-19T10:36:29.250Z,1.73
2023-02-19T10:38:58.874Z,1.90
2023-02-19T10:41:28.525Z,1.92
2023-02-19T10:44:01.955Z,1.80
2023-02-19T10:46:33.200Z,1.80
2023-02-19T10:49:04.926Z,1.63
2023-02-19T10:51:35.950Z,2.10
2023-02-19T10:56:38.510Z,2.03
2023-02-19T10:59:27.637Z,1.90
2023-02-19T11:01:57.474Z,1.98
2023-02-19T11:04:27.962Z,2.00
2023-02-19T11:06:57.377Z,1.90
2023-02-19T11:09:29.636Z,1.85
2023-02-19T11:11:59.310Z,2.03
2023-02-19T11:14:30.737Z,2.08
2023-02-19T11:17:00.964Z,1.90
2023-02-19T11:19:37.340Z,1.85
2023-02-19T11:22:21.088Z,2.10
2023-02-19T11:24:51.799Z,2.35
2023-02-19T11:27:23.928Z,2.10
2023-02-19T11:29:52.123Z,2.60
2023-02-19T11:32:30.766Z,2.08
2023-02-19T11:35:22.417Z,2.00
2023-02-19T11:37:56.590Z,2.03
2023-02-19T11:40:38.984Z,1.80
2023-02-19T11:43:21.881Z,1.75
2023-02-19T11:45:59.438Z,1.80
2023-02-19T11:48:41.231Z,2.03
2023-02-19T11:51:28.142Z,1.85
2023-02-19T11:54:09.765Z,1.80
2023-02-19T11:56:40.096Z,1.85
2023-02-19T11:59:16.981Z,2.53
2023-02-19T12:02:17.809Z,2.05
2023-02-19T12:07:57.638Z,1.67
2023-02-19T12:10:35.932Z,1.70
2023-02-19T12:13:12.373Z,1.73
2023-02-19T12:19:11.750Z,2.40
2023-02-19T12:21:54.776Z,1.90
2023-02-19T12:27:21.296Z,2.00
2023-02-19T12:30:02.433Z,2.38
2023-02-19T12:32:44.032Z,2.22
2023-02-19T12:35:45.942Z,2.03
2023-02-19T12:38:23.554Z,1.98
2023-02-19T12:41:10.270Z,2.10
2023-02-19T12:43:41.525Z,1.88
2023-02-19T12:46:15.503Z,1.90
2023-02-19T12:48:50.351Z,1.83
2023-02-19T12:51:24.358Z,1.75
2023-02-19T12:53:57.934Z,1.80
2023-02-19T12:56:31.926Z,1.83
2023-02-19T12:59:04.634Z,1.80
2023-02-19T13:01:36.623Z,1.77
2023-02-19T13:04:18.596Z,1.63
2023-02-19T13:06:51.392Z,1.63
2023-02-19T13:09:23.415Z,1.75
2023-02-19T13:11:58.520Z,1.67
2023-02-19T13:14:31.667Z,1.80
2023-02-19T13:17:05.027Z,1.85
2023-02-19T13:19:34.458Z,1.83
2023-02-19T13:22:30.506Z,1.67
2023-02-19T13:24:58.856Z,1.88
2023-02-19T13:27:41.893Z,2.03
2023-02-19T13:33:00.680Z,2.00
2023-02-19T13:35:55.067Z,1.70
2023-02-19T13:38:23.624Z,1.83
2023-02-19T13:40:56.737Z,1.83
2023-02-19T13:43:27.852Z,1.70
2023-02-19T13:48:29.625Z,2.00
2023-02-19T13:51:41.145Z,2.10
2023-02-19T13:54:23.604Z,1.90
2023-02-19T13:57:12.311Z,2.08
2023-02-19T13:59:41.649Z,1.90
2023-02-19T14:02:29.103Z,1.95
2023-02-19T14:05:00.212Z,2.28
2023-02-19T14:10:34.636Z,1.65
2023-02-19T14:13:02.429Z,1.70
2023-02-19T14:15:44.191Z,1.67
2023-02-19T14:18:43.803Z,1.67
2023-02-19T14:21:18.167Z,1.80
2023-02-19T14:23:52.226Z,1.63
2023-02-19T14:26:20.967Z,1.60
2023-02-19T14:28:50.336Z,1.80
2023-02-19T14:31:33.201Z,1.70
2023-02-19T14:36:50.309Z,1.65
2023-02-19T14:39:20.638Z,1.80
2023-02-19T14:41:51.449Z,1.48
2023-02-19T14:44:23.386Z,1.30
2023-02-19T14:46:58.658Z,1.30
2023-02-19T14:49:31.758Z,1.30
2023-02-19T14:52:02.192Z,1.10
2023-02-19T14:54:42.466Z,1.10
2023-02-19T14:57:16.270Z,1.10
2023-02-19T14:59:55.249Z,1.40
2023-02-19T15:02:25.985Z,1.20
2023-02-19T15:04:57.477Z,1.20
2023-02-19T15:07:29.129Z,1.58
2023-02-19T15:10:02.903Z,1.02
2023-02-19T15:12:36.758Z,1.17
2023-02-19T15:15:06.495Z,1.35
2023-02-19T15:17:41.457Z,1.65
2023-02-19T15:20:17.380Z,1.40
2023-02-19T15:22:46.309Z,1.60
2023-02-19T15:25:19.066Z,1.83
2023-02-19T15:27:46.956Z,1.85
2023-02-19T15:30:24.026Z,2.22
2023-02-19T15:35:27.399Z,2.47
2023-02-19T15:37:56.452Z,2.13
2023-02-19T15:40:30.462Z,1.90
2023-02-19T15:43:00.110Z,1.75
2023-02-19T15:45:32.403Z,1.60
2023-02-19T15:48:08.246Z,1.60
2023-02-19T15:50:40.171Z,1.70
2023-02-19T15:53:10.678Z,1.70
2023-02-19T15:55:43.731Z,1.25
2023-02-19T15:58:19.019Z,1.20
2023-02-19T16:00:50.375Z,2.30
2023-02-19T16:03:22.022Z,2.20
2023-02-19T16:06:00.365Z,2.47
2023-02-19T16:08:31.103Z,2.55
2023-02-19T16:11:00.674Z,2.20
2023-02-19T16:13:30.654Z,2.30
2023-02-19T16:16:07.353Z,1.98
2023-02-19T16:18:36.825Z,2.03
2023-02-19T16:21:09.497Z,2.20
2023-02-19T16:23:43.059Z,1.80
2023-02-19T16:26:11.199Z,2.20
2023-02-19T16:28:40.715Z,1.80
2023-02-19T16:31:11.116Z,1.50
2023-02-19T16:33:42.482Z,1.75
2023-02-19T16:39:17.410Z,1.73
2023-02-19T16:42:15.842Z,2.00
2023-02-19T16:44:52.748Z,2.00
2023-02-19T16:47:30.072Z,2.35
2023-02-19T16:50:02.474Z,2.40
2023-02-19T16:52:31.237Z,2.50
2023-02-19T16:54:59.348Z,2.38
2023-02-19T16:57:27.151Z,2.30
2023-02-19T16:59:54.934Z,2.75
2023-02-19T17:02:25.706Z,2.30
2023-02-19T17:04:55.186Z,2.67
2023-02-19T17:07:26.055Z,2.70
2023-02-19T17:09:54.123Z,2.05
2023-02-19T17:12:23.175Z,2.53
2023-02-19T17:14:50.953Z,2.45
2023-02-19T17:17:18.736Z,2.72
2023-02-19T17:19:48.452Z,2.80
2023-02-19T17:22:17.749Z,2.90
2023-02-19T17:24:50.852Z,3.15
2023-02-19T17:30:15.000Z,3.00
2023-02-19T17:32:42.820Z,2.97
2023-02-19T17:35:10.666Z,2.42
2023-02-19T17:37:38.497Z,2.45
2023-02-19T17:40:31.750Z,2.25
2023-02-19T17:43:00.381Z,2.30
2023-02-19T17:45:28.255Z,2.10
2023-02-19T17:47:56.049Z,1.83
2023-02-19T17:50:26.892Z,2.30
2023-02-19T17:52:55.091Z,2.35
2023-02-19T17:55:24.701Z,2.50
2023-02-19T17:57:53.534Z,2.28
2023-02-19T18:00:23.290Z,2.95
2023-02-19T18:02:51.563Z,2.45
2023-02-19T18:05:19.989Z,2.38
2023-02-19T18:07:48.859Z,2.40
2023-02-19T18:10:18.868Z,2.83
2023-02-19T18:12:48.463Z,2.20
2023-02-19T18:15:18.745Z,2.15
2023-02-19T18:17:46.611Z,3.55
2023-02-19T18:20:15.790Z,3.30
2023-02-19T18:22:43.710Z,2.67
2023-02-19T18:25:12.046Z,2.60
2023-02-19T18:27:40.314Z,2.10
2023-02-19T18:30:10.664Z,2.10
2023-02-19T18:32:38.970Z,1.85
2023-02-19T18:35:07.414Z,1.77
2023-02-19T18:37:35.527Z,2.03
2023-02-19T18:40:04.455Z,2.15
2023-02-19T18:42:32.322Z,2.13
2023-02-19T18:45:00.431Z,2.38
2023-02-19T18:47:29.546Z,2.60
2023-02-19T18:49:58.519Z,2.20
2023-02-19T18:52:27.924Z,2.70
2023-02-19T18:54:57.264Z,2.78
2023-02-19T18:57:25.978Z,2.88
2023-02-19T18:59:54.384Z,3.00
2023-02-19T19:02:22.608Z,2.40
2023-02-19T19:04:54.127Z,2.70
2023-02-19T19:07:22.563Z,2.97
2023-02-19T19:09:50.979Z,3.55
2023-02-19T19:12:18.843Z,3.03
2023-02-19T19:14:46.886Z,2.95
2023-02-19T19:17:14.699Z,4.13
2023-02-19T19:19:44.519Z,3.22
2023-02-19T19:22:13.797Z,3.55
2023-02-19T19:24:41.617Z,3.60
2023-02-19T19:27:09.410Z,3.85
2023-02-19T19:29:37.386Z,3.28
2023-02-19T19:32:08.359Z,4.88
2023-02-19T19:34:36.585Z,4.00
2023-02-19T19:37:04.381Z,4.07
2023-02-19T19:39:33.507Z,3.85
2023-02-19T19:42:01.298Z,3.45
2023-02-19T19:44:29.115Z,3.50
2023-02-19T19:46:56.912Z,2.97
2023-02-19T19:49:24.978Z,3.85
2023-02-19T19:51:52.807Z,3.25
2023-02-19T19:54:20.607Z,3.80
2023-02-19T19:56:50.868Z,4.53
2023-02-19T19:59:19.031Z,3.97
2023-02-19T20:01:51.319Z,3.30
2023-02-19T20:04:20.050Z,3.97
2023-02-19T20:06:48.177Z,4.32
2023-02-19T20:09:17.136Z,4.32
2023-02-19T20:11:46.632Z,3.70
2023-02-19T20:14:16.950Z,5.00
2023-02-19T20:16:44.910Z,4.38
2023-02-19T20:19:12.737Z,3.80
2023-02-19T20:21:40.546Z,4.00
2023-02-19T20:24:08.782Z,3.70
2023-02-19T20:26:36.687Z,4.15
2023-02-19T20:29:06.144Z,4.10
2023-02-19T20:31:35.452Z,4.80
2023-02-19T20:34:03.338Z,4.90
2023-02-19T20:36:32.289Z,5.30
2023-02-19T20:39:00.077Z,4.38
2023-02-19T20:41:27.885Z,3.92
2023-02-19T20:43:55.688Z,4.60
2023-02-19T20:46:23.515Z,4.30
2023-02-19T20:48:52.724Z,4.65
2023-02-19T20:51:20.501Z,4.82
2023-02-19T20:53:48.602Z,4.50
2023-02-19T20:56:16.402Z,5.07
2023-02-19T20:58:44.203Z,4.90
2023-02-19T21:01:12.684Z,4.72
2023-02-19T21:03:40.513Z,4.88
2023-02-19T21:06:10.013Z,5.22
2023-02-19T21:08:40.104Z,5.60
2023-02-19T21:13:36.976Z,5.18
2023-02-19T21:16:05.041Z,5.45
2023-02-19T21:18:32.791Z,5.85
2023-02-19T21:21:00.687Z,5.50
2023-02-19T21:23:29.870Z,5.10
2023-02-19T21:25:57.735Z,5.82
2023-02-19T21:28:25.830Z,5.82
2023-02-19T21:30:53.681Z,5.97
2023-02-19T21:33:21.504Z,5.20
2023-02-19T21:35:49.251Z,4.90
2023-02-19T21:38:17.022Z,5.53
2023-02-19T21:40:46.133Z,5.70
2023-02-19T21:43:13.945Z,5.55
2023-02-19T21:45:42.674Z,5.13
2023-02-19T21:48:10.708Z,4.90
2023-02-19T21:50:38.521Z,4.40
2023-02-19T21:53:06.407Z,4.55
2023-02-19T21:55:34.144Z,4.80
2023-02-19T21:58:03.291Z,4.70
2023-02-19T22:00:31.812Z,4.43
2023-02-19T22:02:59.983Z,4.63
2023-02-19T22:05:27.766Z,4.13
2023-02-19T22:07:55.649Z,4.60
2023-02-19T22:10:23.417Z,5.05
2023-02-19T22:12:51.176Z,4.10
2023-02-19T22:15:20.336Z,4.70
2023-02-19T22:17:48.134Z,5.07
2023-02-19T22:20:17.202Z,4.70
2023-02-19T22:22:45.010Z,4.75
2023-02-19T22:25:12.766Z,4.78
2023-02-19T22:27:40.577Z,4.68
2023-02-19T22:30:09.259Z,5.13
2023-02-19T22:32:38.616Z,5.35
2023-02-19T22:35:07.208Z,4.95
2023-02-19T22:37:34.954Z,5.38
2023-02-19T22:40:02.855Z,5.03
2023-02-19T22:42:30.702Z,4.70
2023-02-19T22:44:58.468Z,4.07
2023-02-19T22:47:26.264Z,5.05
2023-02-19T22:49:55.401Z,4.88
2023-02-19T22:52:24.001Z,5.10
2023-02-19T22:54:53.578Z,5.00
2023-02-19T22:57:21.414Z,5.35
2023-02-19T22:59:49.226Z,5.35
2023-02-19T23:02:17.063Z,5.75
2023-02-19T23:04:45.199Z,5.60
2023-02-19T23:07:14.350Z,5.88
2023-02-19T23:09:42.110Z,6.07
2023-02-19T23:12:11.700Z,5.53
2023-02-19T23:14:39.503Z,5.57
2023-02-19T23:17:07.724Z,6.68
2023-02-19T23:19:35.542Z,5.82
2023-02-19T23:22:03.475Z,6.65
2023-02-19T23:24:32.984Z,6.32
2023-02-19T23:27:00.788Z,6.47
2023-02-19T23:29:30.693Z,6.32
2023-02-19T23:32:00.295Z,6.07
2023-02-19T23:34:28.196Z,6.82
2023-02-19T23:36:56.383Z,7.57
2023-02-19T23:39:24.131Z,6.70
2023-02-19T23:41:55.075Z,6.82
2023-02-19T23:44:24.074Z,7.00
2023-02-19T23:46:52.610Z,6.85
2023-02-19T23:49:20.933Z,7.47
2023-02-19T23:51:48.856Z,7.63
2023-02-19T23:54:16.974Z,7.40
2023-02-19T23:56:44.784Z,7.10
2023-02-19T23:59:13.932Z,7.43
